Time;durP1;ratioP1;P1;durP2;ratioP2;P2;SDS_P1;SDS_P2;PMS_P1;PMS_P2;Temp;Humidity;BMP_temperature;BMP_pressure;BME280_temperature;BME280_humidity;BME280_pressure;Samples;Min_cycle;Max_cycle;Signal;HPM_P1;HPM_P2
2024/02/23 00:00:24;;;;;;;0.80;0.30;;;;;;;7.25;100.00;153222.13;5112159;28;20454;-78
2024/02/23 00:02:50;;;;;;;0.70;0.20;;;;;;;7.23;100.00;153216.91;5092892;28;20456;-77
2024/02/23 00:05:17;;;;;;;0.80;0.20;;;;;;;7.23;100.00;153218.22;5093561;28;20510;-77
2024/02/23 00:07:45;;;;;;;1.20;0.40;;;;;;;7.25;100.00;153223.38;5108472;28;20443;-77
2024/02/23 00:10:11;;;;;;;0.70;0.20;;;;;;;7.18;100.00;153205.31;5101796;28;20463;-78
2024/02/23 00:12:38;;;;;;;0.73;0.20;;;;;;;7.16;100.00;153198.84;5109650;28;20461;-78
2024/02/23 00:15:05;;;;;;;0.70;0.20;;;;;;;7.11;100.00;153185.94;5107307;28;20718;-77
2024/02/23 00:17:31;;;;;;;0.70;0.30;;;;;;;7.09;100.00;153180.81;5085714;28;20480;-78
2024/02/23 00:20:05;;;;;;;0.60;0.20;;;;;;;7.08;100.00;153178.19;5090190;28;20436;-78
2024/02/23 00:22:33;;;;;;;0.80;0.30;;;;;;;7.01;100.00;153161.44;5088987;28;20957;-78
2024/02/23 00:25:01;;;;;;;0.70;0.20;;;;;;;7.01;100.00;153160.13;5116603;28;20962;-77
2024/02/23 00:27:28;;;;;;;0.80;0.23;;;;;;;6.95;100.00;153145.94;5093404;28;20456;-77
2024/02/23 00:29:54;;;;;;;0.77;0.30;;;;;;;6.92;100.00;153136.88;5094911;28;21240;-77
2024/02/23 00:32:21;;;;;;;0.70;0.20;;;;;;;6.90;100.00;153133.03;5116792;28;20451;-77
2024/02/23 00:34:47;;;;;;;0.80;0.40;;;;;;;6.87;100.00;153125.28;5113288;28;21031;-77
2024/02/23 00:37:14;;;;;;;0.90;0.30;;;;;;;6.89;100.00;153130.44;5090362;28;20822;-78
2024/02/23 00:39:41;;;;;;;0.70;0.20;;;;;;;6.89;100.00;153130.44;5116633;27;20447;-77
2024/02/23 00:42:09;;;;;;;0.70;0.33;;;;;;;6.88;100.00;153127.88;5114230;28;20431;-77
2024/02/23 00:44:36;;;;;;;0.60;0.20;;;;;;;6.84;100.00;153117.53;5092292;28;20576;-79
2024/02/23 00:47:04;;;;;;;0.67;0.20;;;;;;;6.84;100.00;153116.22;5118400;28;20950;-79
2024/02/23 00:49:30;;;;;;;0.80;0.40;;;;;;;6.83;100.00;153114.94;5105366;28;20803;-79
2024/02/23 00:51:57;;;;;;;1.30;0.40;;;;;;;6.82;100.00;153112.38;5095948;28;20530;-79
2024/02/23 00:54:23;;;;;;;0.67;0.20;;;;;;;6.79;100.00;153104.63;5107738;28;20456;-78
2024/02/23 00:56:50;;;;;;;1.30;0.40;;;;;;;6.76;100.00;153096.88;5089384;28;20543;-79
2024/02/23 00:59:18;;;;;;;3.13;0.40;;;;;;;6.73;100.00;153089.13;5110892;27;20435;-79
2024/02/23 01:01:44;;;;;;;0.70;0.30;;;;;;;6.67;100.00;153074.91;5109309;28;20905;-79
2024/02/23 01:04:11;;;;;;;0.80;0.30;;;;;;;6.68;100.00;153076.22;5099129;28;20520;-79
2024/02/23 01:06:38;;;;;;;0.70;0.30;;;;;;;6.69;100.00;153080.13;5115245;28;20478;-79
2024/02/23 01:09:04;;;;;;;0.70;0.30;;;;;;;6.71;100.00;153083.97;5112697;28;20806;-79
2024/02/23 01:11:31;;;;;;;1.67;0.30;;;;;;;6.68;100.00;153077.50;5097888;28;20551;-79
2024/02/23 01:13:58;;;;;;;2.53;0.50;;;;;;;6.66;100.00;153071.06;5094550;28;20464;-79
2024/02/23 01:16:25;;;;;;;0.80;0.30;;;;;;;6.64;100.00;153065.91;5091467;28;20587;-79
2024/02/23 01:18:52;;;;;;;1.93;0.70;;;;;;;6.68;100.00;153077.50;5110426;27;20493;-79
2024/02/23 01:21:18;;;;;;;1.30;0.60;;;;;;;6.64;100.00;153067.22;5097526;28;20448;-79
2024/02/23 01:23:45;;;;;;;1.83;0.30;;;;;;;6.64;100.00;153067.22;5112386;27;20571;-78
2024/02/23 01:26:12;;;;;;;1.33;0.30;;;;;;;6.64;100.00;153065.91;5097255;28;20482;-79
2024/02/23 01:28:38;;;;;;;1.03;0.40;;;;;;;6.61;100.00;153059.47;5094548;28;20450;-78
2024/02/23 01:31:07;;;;;;;1.40;0.50;;;;;;;6.57;100.00;153049.13;5090647;28;20459;-78
2024/02/23 01:33:36;;;;;;;0.83;0.50;;;;;;;6.55;100.00;153042.66;5109653;28;20440;-79
2024/02/23 01:36:03;;;;;;;1.40;0.70;;;;;;;6.56;100.00;153045.25;5107496;28;20484;-79
2024/02/23 01:38:32;;;;;;;1.67;0.53;;;;;;;6.55;100.00;153042.66;5091423;28;20504;-78
2024/02/23 01:40:58;;;;;;;1.03;0.40;;;;;;;6.50;100.00;153031.06;5094240;28;20457;-78
2024/02/23 01:43:25;;;;;;;1.33;0.30;;;;;;;6.48;100.00;153025.91;5109907;27;20440;-79
2024/02/23 01:45:52;;;;;;;1.10;0.37;;;;;;;6.46;100.00;153019.47;5123874;27;20474;-78
2024/02/23 01:48:19;;;;;;;1.30;0.70;;;;;;;6.50;100.00;153031.06;5109352;28;20440;-78
2024/02/23 01:50:46;;;;;;;1.20;0.67;;;;;;;6.48;100.00;153025.91;5093295;28;20429;-79
2024/02/23 01:53:13;;;;;;;3.13;0.50;;;;;;;6.45;100.00;153016.88;5089471;28;20911;-79
2024/02/23 01:55:41;;;;;;;1.33;0.47;;;;;;;6.43;100.00;153011.72;5091996;28;20448;-79
2024/02/23 01:58:08;;;;;;;0.80;0.40;;;;;;;6.41;100.00;153006.53;5087476;28;20449;-79
2024/02/23 02:00:35;;;;;;;1.87;0.40;;;;;;;6.39;100.00;153001.38;5091083;28;20452;-79
2024/02/23 02:03:02;;;;;;;0.80;0.50;;;;;;;6.37;100.00;152997.53;5107752;28;20460;-79
2024/02/23 02:05:28;;;;;;;2.07;0.60;;;;;;;6.39;100.00;153002.66;5089296;28;20966;-79
2024/02/23 02:07:58;;;;;;;1.03;0.43;;;;;;;6.41;100.00;153006.53;5109625;28;20458;-79
2024/02/23 02:10:25;;;;;;;1.30;0.50;;;;;;;6.40;100.00;153005.28;5090428;28;20524;-79
2024/02/23 02:12:52;;;;;;;2.10;0.50;;;;;;;6.39;100.00;153001.38;5089215;28;20460;-78
2024/02/23 02:15:18;;;;;;;1.73;0.60;;;;;;;6.37;100.00;152997.53;5106757;28;20691;-79
2024/02/23 02:17:45;;;;;;;1.40;0.63;;;;;;;6.36;100.00;152994.91;5106672;28;20455;-79
2024/02/23 02:20:13;;;;;;;0.80;0.30;;;;;;;6.33;100.00;152987.16;5105743;28;20447;-78
2024/02/23 02:22:40;;;;;;;1.60;0.50;;;;;;;6.34;100.00;152988.47;5093516;28;20472;-79
2024/02/23 02:25:08;;;;;;;1.00;0.40;;;;;;;6.32;100.00;152984.63;5111584;27;20480;-79
2024/02/23 02:27:35;;;;;;;1.07;0.47;;;;;;;6.32;100.00;152983.31;5102927;28;20464;-78
2024/02/23 02:30:02;;;;;;;0.90;0.47;;;;;;;6.30;100.00;152979.41;5093921;28;21030;-79
2024/02/23 02:32:29;;;;;;;1.60;0.37;;;;;;;6.25;100.00;152965.28;5090448;28;20504;-78
2024/02/23 02:34:55;;;;;;;1.13;0.57;;;;;;;6.18;100.00;152947.19;5098338;28;20448;-78
2024/02/23 02:37:22;;;;;;;2.30;0.47;;;;;;;6.14;100.00;152938.19;5080814;28;20452;-78
2024/02/23 02:39:48;;;;;;;2.10;0.40;;;;;;;6.15;100.00;152940.72;5108253;27;20435;-78
2024/02/23 02:42:16;;;;;;;2.27;0.50;;;;;;;6.11;100.00;152931.72;5103700;28;20509;-78
2024/02/23 02:44:43;;;;;;;1.50;0.43;;;;;;;6.12;100.00;152934.28;5108085;27;20448;-78
2024/02/23 02:47:09;;;;;;;1.70;0.43;;;;;;;6.12;100.00;152934.28;5112723;27;20509;-78
2024/02/23 02:49:36;;;;;;;1.07;0.47;;;;;;;6.08;100.00;152923.97;5092943;28;20425;-78
2024/02/23 02:52:02;;;;;;;0.93;0.40;;;;;;;6.06;100.00;152917.53;5094961;28;20429;-78
2024/02/23 02:54:29;;;;;;;1.30;0.40;;;;;;;6.04;100.00;152913.63;5105917;28;20516;-78
2024/02/23 02:56:55;;;;;;;0.90;0.50;;;;;;;6.02;100.00;152907.19;5087761;28;20433;-79
2024/02/23 02:59:24;;;;;;;0.80;0.60;;;;;;;5.99;100.00;152900.75;5106904;28;20459;-79
2024/02/23 03:01:50;;;;;;;1.20;0.30;;;;;;;5.97;100.00;152895.59;5093057;28;20463;-78
2024/02/23 03:04:17;;;;;;;0.83;0.40;;;;;;;5.96;100.00;152891.69;5082184;28;20449;-78
2024/02/23 03:06:43;;;;;;;1.10;0.67;;;;;;;5.93;100.00;152885.25;5122784;27;20536;-78
2024/02/23 03:09:10;;;;;;;2.20;1.30;;;;;;;5.94;100.00;152886.56;5107950;28;20493;-78
2024/02/23 03:11:37;;;;;;;1.80;0.50;;;;;;;5.88;100.00;152872.34;5098375;28;20432;-78
2024/02/23 03:14:03;;;;;;;0.90;0.40;;;;;;;5.87;100.00;152869.81;5091125;28;20452;-78
2024/02/23 03:16:31;;;;;;;1.03;0.50;;;;;;;5.85;100.00;152864.63;5092153;28;20555;-78
2024/02/23 03:18:58;;;;;;;2.10;0.63;;;;;;;5.83;100.00;152858.13;5106193;28;20830;-78
2024/02/23 03:21:24;;;;;;;2.07;0.83;;;;;;;5.79;100.00;152849.13;5105611;28;20451;-78
2024/02/23 03:23:51;;;;;;;1.10;0.50;;;;;;;5.81;100.00;152852.97;5091274;27;20464;-79
2024/02/23 03:26:18;;;;;;;0.90;0.60;;;;;;;5.79;100.00;152847.81;5108298;27;20549;-78
2024/02/23 03:28:44;;;;;;;1.37;0.70;;;;;;;5.82;100.00;152855.56;5105789;28;20460;-78
2024/02/23 03:31:11;;;;;;;2.60;0.60;;;;;;;5.86;100.00;152865.91;5075370;28;20497;-78
2024/02/23 03:33:39;;;;;;;2.40;0.60;;;;;;;5.86;100.00;152865.91;5094610;28;20736;-78
2024/02/23 03:36:06;;;;;;;1.67;0.80;;;;;;;5.85;100.00;152864.63;5093697;28;20428;-78
2024/02/23 03:38:33;;;;;;;2.53;0.67;;;;;;;5.80;99.88;152851.66;5121289;27;20463;-78
2024/02/23 03:41:00;;;;;;;0.90;0.47;;;;;;;5.83;100.00;152859.41;5092356;28;20943;-78
2024/02/23 03:43:26;;;;;;;1.13;0.50;;;;;;;5.81;100.00;152854.28;5088348;28;20814;-78
2024/02/23 03:45:53;;;;;;;1.33;0.70;;;;;;;5.78;100.00;152845.22;5106292;28;20476;-78
2024/02/23 03:48:20;;;;;;;1.90;0.63;;;;;;;5.75;99.80;152838.78;5092001;28;21057;-78
2024/02/23 03:50:48;;;;;;;1.17;0.57;;;;;;;5.73;100.00;152833.63;5105224;28;20452;-79
2024/02/23 03:53:14;;;;;;;2.13;0.80;;;;;;;5.71;99.49;152827.19;5106110;28;20437;-78
2024/02/23 03:55:41;;;;;;;1.10;0.40;;;;;;;5.74;99.54;152836.22;5094034;28;20455;-78
2024/02/23 03:58:07;;;;;;;0.80;0.43;;;;;;;5.76;99.47;152841.38;5091607;28;20471;-78
2024/02/23 04:00:34;;;;;;;2.03;0.77;;;;;;;5.69;99.38;152823.34;5071366;28;20485;-78
2024/02/23 04:03:00;;;;;;;2.40;0.80;;;;;;;5.70;98.95;152825.88;5085133;28;20781;-78
2024/02/23 04:05:27;;;;;;;0.80;0.40;;;;;;;5.73;98.08;152833.63;5065643;28;20465;-78
2024/02/23 04:07:55;;;;;;;2.20;0.70;;;;;;;5.72;98.15;152829.78;5083636;28;20452;-78
2024/02/23 04:10:21;;;;;;;3.90;0.73;;;;;;;5.67;97.39;152816.84;5087249;28;20429;-78
2024/02/23 04:12:48;;;;;;;1.53;0.60;;;;;;;5.67;97.07;152816.84;5067370;28;20441;-78
2024/02/23 04:15:14;;;;;;;0.87;0.50;;;;;;;5.65;97.85;152813.00;5064578;28;20503;-77
2024/02/23 04:17:41;;;;;;;1.80;0.70;;;;;;;5.68;98.24;152819.44;5085979;28;20456;-78
2024/02/23 04:20:09;;;;;;;3.57;0.63;;;;;;;5.61;97.16;152802.72;5083952;28;20455;-78
2024/02/23 04:22:36;;;;;;;1.53;0.70;;;;;;;5.56;96.27;152788.50;5093662;28;20453;-78
2024/02/23 04:25:04;;;;;;;2.70;0.60;;;;;;;5.55;96.39;152787.22;5065456;28;20460;-78
2024/02/23 04:27:31;;;;;;;2.17;0.60;;;;;;;5.57;96.80;152792.38;5086799;28;20599;-77
2024/02/23 04:29:58;;;;;;;1.30;0.80;;;;;;;5.57;97.13;152792.38;5065228;28;20464;-78
2024/02/23 04:32:24;;;;;;;1.00;0.50;;;;;;;5.56;97.25;152788.50;5085451;28;20451;-78
2024/02/23 04:34:51;;;;;;;0.90;0.40;;;;;;;5.51;97.11;152778.19;5069661;28;20448;-78
2024/02/23 04:37:17;;;;;;;1.23;0.67;;;;;;;5.47;96.33;152766.59;5059209;28;20830;-78
2024/02/23 04:39:44;;;;;;;1.40;1.00;;;;;;;5.47;96.21;152766.59;5069309;28;20442;-77
2024/02/23 04:42:12;;;;;;;0.97;0.60;;;;;;;5.43;96.50;152756.25;5090353;28;20490;-78
2024/02/23 04:44:39;;;;;;;1.00;0.33;;;;;;;5.41;95.78;152751.09;5069308;28;20453;-77
2024/02/23 04:47:06;;;;;;;3.93;0.73;;;;;;;5.39;95.58;152745.94;5088817;28;20482;-77
2024/02/23 04:49:32;;;;;;;1.23;0.60;;;;;;;5.38;96.09;152744.66;5071496;28;20441;-77
2024/02/23 04:51:58;;;;;;;2.30;0.67;;;;;;;5.39;96.29;152747.25;5070965;28;20444;-78
2024/02/23 04:54:25;;;;;;;2.70;1.00;;;;;;;5.36;96.36;152739.50;5071287;28;20494;-78
2024/02/23 04:56:51;;;;;;;1.33;0.60;;;;;;;5.38;97.15;152744.66;5087696;28;20453;-78
2024/02/23 04:59:19;;;;;;;1.87;0.70;;;;;;;5.37;96.75;152742.09;5088417;28;20959;-78
2024/02/23 05:01:47;;;;;;;1.40;0.70;;;;;;;5.34;96.70;152733.06;5108861;28;20447;-78
2024/02/23 05:04:13;;;;;;;1.37;0.60;;;;;;;5.32;96.14;152727.91;5092274;28;20454;-77
2024/02/23 05:06:40;;;;;;;0.83;0.60;;;;;;;5.29;96.43;152720.19;5107371;28;20560;-78
2024/02/23 05:09:09;;;;;;;1.20;0.60;;;;;;;5.22;96.04;152702.09;5093791;28;20464;-78
2024/02/23 05:11:35;;;;;;;1.20;0.70;;;;;;;5.20;95.54;152696.94;5095619;28;20443;-78
2024/02/23 05:14:02;;;;;;;2.80;0.60;;;;;;;5.20;95.95;152698.25;5091096;28;20791;-78
2024/02/23 05:16:30;;;;;;;1.20;0.50;;;;;;;5.17;96.32;152689.22;5107192;27;20452;-77
2024/02/23 05:18:56;;;;;;;1.73;0.57;;;;;;;5.18;96.47;152693.09;5104848;28;20445;-77
2024/02/23 05:21:23;;;;;;;2.70;0.50;;;;;;;5.14;96.72;152682.78;5107724;28;20520;-77
2024/02/23 05:23:49;;;;;;;1.13;0.50;;;;;;;5.18;96.79;152691.81;5097059;27;21309;-78
2024/02/23 05:26:16;;;;;;;3.90;0.70;;;;;;;5.15;97.05;152684.06;5108312;27;20974;-77
2024/02/23 05:28:42;;;;;;;1.30;0.70;;;;;;;5.13;97.02;152678.94;5105520;28;20464;-77
2024/02/23 05:31:10;;;;;;;1.60;0.77;;;;;;;5.10;95.91;152672.47;5102191;28;20445;-77
2024/02/23 05:33:38;;;;;;;1.27;0.73;;;;;;;5.10;95.68;152671.19;5106865;28;20873;-77
2024/02/23 05:36:05;;;;;;;2.30;0.60;;;;;;;5.13;96.19;152678.94;5103333;27;20450;-77
2024/02/23 05:38:32;;;;;;;1.10;0.50;;;;;;;5.11;96.17;152673.78;5081801;28;20493;-77
2024/02/23 05:40:58;;;;;;;2.47;0.70;;;;;;;5.11;96.51;152675.03;5106145;28;20459;-77
2024/02/23 05:43:25;;;;;;;2.77;0.70;;;;;;;5.10;96.25;152671.19;5112153;27;20459;-77
2024/02/23 05:45:52;;;;;;;2.43;0.60;;;;;;;5.08;96.78;152667.34;5104242;28;20452;-77
2024/02/23 05:48:18;;;;;;;0.80;0.47;;;;;;;5.06;95.97;152662.16;5108218;28;20918;-77
2024/02/23 05:50:46;;;;;;;1.10;0.70;;;;;;;5.07;96.61;152663.44;5110377;28;20440;-77
2024/02/23 05:53:13;;;;;;;1.60;0.80;;;;;;;5.04;97.17;152657.00;5092335;28;20452;-77
2024/02/23 05:55:40;;;;;;;1.67;0.70;;;;;;;5.04;97.45;152655.69;5079740;28;20459;-77
2024/02/23 05:58:07;;;;;;;0.90;0.53;;;;;;;5.01;97.75;152647.97;5107689;28;20801;-77
2024/02/23 06:00:34;;;;;;;1.87;0.83;;;;;;;4.98;97.78;152640.28;5084520;28;20475;-77
2024/02/23 06:03:00;;;;;;;2.50;0.67;;;;;;;4.94;97.80;152631.22;5084409;28;20990;-77
2024/02/23 06:05:27;;;;;;;2.53;0.60;;;;;;;4.97;98.45;152638.97;5105658;27;20458;-77
2024/02/23 06:07:57;;;;;;;1.20;0.70;;;;;;;4.96;98.09;152635.06;5099427;27;20475;-77
2024/02/23 06:10:24;;;;;;;1.20;0.57;;;;;;;4.90;97.57;152622.19;5110800;27;20792;-76
2024/02/23 06:12:51;;;;;;;2.10;1.07;;;;;;;4.85;96.79;152609.31;5117487;27;20508;-76
2024/02/23 06:15:17;;;;;;;1.87;1.20;;;;;;;4.90;96.20;152622.19;5107365;27;22336;-76
2024/02/23 06:17:44;;;;;;;3.77;1.10;;;;;;;4.95;96.25;152632.53;5117065;27;20812;-76
2024/02/23 06:20:12;;;;;;;3.40;0.93;;;;;;;4.91;97.43;152624.78;5092509;28;20452;-76
2024/02/23 06:22:38;;;;;;;1.57;0.77;;;;;;;4.82;98.49;152601.56;5115710;27;20456;-76
2024/02/23 06:25:07;;;;;;;1.53;0.80;;;;;;;4.82;98.87;152600.28;5111567;27;20482;-76
2024/02/23 06:27:33;;;;;;;1.77;0.87;;;;;;;4.84;99.53;152606.72;5095155;27;20471;-76
2024/02/23 06:30:00;;;;;;;1.83;0.93;;;;;;;4.83;99.73;152604.16;5096314;27;20547;-76
2024/02/23 06:32:26;;;;;;;1.90;0.80;;;;;;;4.82;100.00;152601.56;5097859;27;20528;-76
2024/02/23 06:34:54;;;;;;;1.53;0.80;;;;;;;4.81;100.00;152599.03;5112846;27;20456;-78
2024/02/23 06:37:20;;;;;;;1.53;0.80;;;;;;;4.81;100.00;152597.72;5109804;27;20448;-78
2024/02/23 06:39:51;;;;;;;1.63;0.90;;;;;;;4.82;100.00;152601.56;5111929;27;21242;-78
2024/02/23 06:42:19;;;;;;;1.40;0.80;;;;;;;4.81;100.00;152599.03;5133879;27;20566;-77
2024/02/23 06:44:45;;;;;;;1.83;1.20;;;;;;;4.77;100.00;152588.69;5087292;27;20537;-78
2024/02/23 06:47:11;;;;;;;1.90;1.10;;;;;;;4.72;100.00;152575.81;5113177;27;20501;-77
2024/02/23 06:49:42;;;;;;;1.60;1.00;;;;;;;4.70;100.00;152570.66;5082082;27;20459;-76
2024/02/23 06:52:08;;;;;;;1.80;1.03;;;;;;;4.69;100.00;152568.06;5080753;27;20483;-76
2024/02/23 06:54:35;;;;;;;1.80;1.13;;;;;;;4.72;100.00;152574.50;5106719;27;20888;-76
2024/02/23 06:57:01;;;;;;;1.73;1.00;;;;;;;4.71;100.00;152573.22;5107234;27;20501;-76
2024/02/23 06:59:29;;;;;;;1.77;1.00;;;;;;;4.72;100.00;152574.50;5088590;27;20455;-76
2024/02/23 07:01:56;;;;;;;1.87;1.20;;;;;;;4.73;100.00;152578.41;5110984;27;20445;-76
2024/02/23 07:04:23;;;;;;;1.53;1.00;;;;;;;4.73;100.00;152578.41;5111993;27;20463;-76
2024/02/23 07:06:49;;;;;;;2.07;0.90;;;;;;;4.72;100.00;152575.81;5090342;27;20460;-76
2024/02/23 07:09:16;;;;;;;1.73;1.07;;;;;;;4.74;100.00;152580.97;5107881;27;21008;-76
2024/02/23 07:11:46;;;;;;;1.90;1.20;;;;;;;4.77;100.00;152588.69;5111871;27;20451;-76
2024/02/23 07:14:17;;;;;;;1.50;0.80;;;;;;;4.81;100.00;152597.72;5083647;27;21011;-76
2024/02/23 07:16:45;;;;;;;1.17;0.77;;;;;;;4.81;100.00;152599.03;5111132;27;20448;-76
2024/02/23 07:19:12;;;;;;;1.30;0.70;;;;;;;4.81;100.00;152597.72;5104691;27;20443;-76
2024/02/23 07:21:39;;;;;;;1.40;0.90;;;;;;;4.87;100.00;152613.22;5111091;27;20460;-75
2024/02/23 07:24:06;;;;;;;1.90;1.07;;;;;;;4.92;100.00;152627.34;5098032;27;20452;-76
2024/02/23 07:26:33;;;;;;;2.40;1.73;;;;;;;4.92;100.00;152627.34;5112221;27;20463;-76
2024/02/23 07:28:59;;;;;;;2.07;1.00;;;;;;;4.93;100.00;152629.94;5113520;27;20452;-76
2024/02/23 07:31:28;;;;;;;1.10;0.70;;;;;;;4.96;100.00;152635.06;5100632;27;20448;-76
2024/02/23 07:33:56;;;;;;;1.00;0.70;;;;;;;4.98;100.00;152640.28;5094204;28;20490;-76
2024/02/23 07:36:23;;;;;;;1.70;0.93;;;;;;;4.99;100.00;152642.81;5090588;27;20485;-76
2024/02/23 07:38:51;;;;;;;1.23;0.80;;;;;;;4.98;100.00;152641.53;5091779;28;21010;-76
2024/02/23 07:41:18;;;;;;;2.50;1.00;;;;;;;5.02;100.00;152650.56;5106779;27;20849;-76
2024/02/23 07:43:45;;;;;;;1.53;0.97;;;;;;;5.04;100.00;152657.00;5112450;27;20443;-76
2024/02/23 07:46:11;;;;;;;2.50;0.90;;;;;;;5.07;100.00;152663.44;5077249;27;20464;-76
2024/02/23 07:48:38;;;;;;;1.97;1.17;;;;;;;5.09;100.00;152668.59;5110606;28;20525;-76
2024/02/23 07:51:06;;;;;;;1.33;0.87;;;;;;;5.14;100.00;152681.47;5111481;28;20463;-76
2024/02/23 07:53:33;;;;;;;1.70;1.30;;;;;;;5.18;100.00;152693.09;5113569;28;20454;-76
2024/02/23 07:56:02;;;;;;;3.20;2.43;;;;;;;5.22;100.00;152702.09;5095180;28;21041;-76
2024/02/23 07:58:29;;;;;;;2.70;1.70;;;;;;;5.26;100.00;152712.44;5096877;28;20538;-76
2024/02/23 08:00:55;;;;;;;3.63;1.10;;;;;;;5.28;100.00;152717.59;5079185;28;20624;-76
2024/02/23 08:03:22;;;;;;;2.23;0.90;;;;;;;5.29;100.00;152720.19;5111919;28;20465;-76
2024/02/23 08:05:48;;;;;;;1.57;1.17;;;;;;;5.30;100.00;152724.03;5112510;28;20451;-76
2024/02/23 08:08:16;;;;;;;1.17;0.90;;;;;;;5.33;100.00;152730.47;5114990;27;20975;-76
2024/02/23 08:10:43;;;;;;;1.87;1.10;;;;;;;5.33;100.00;152730.47;5115723;27;20451;-76
2024/02/23 08:13:12;;;;;;;2.07;0.80;;;;;;;5.33;100.00;152730.47;5085654;27;20452;-76
2024/02/23 08:15:38;;;;;;;1.07;0.70;;;;;;;5.32;100.00;152729.16;5115831;27;20482;-76
2024/02/23 08:18:05;;;;;;;1.10;0.87;;;;;;;5.30;100.00;152724.03;5118137;27;20444;-76
2024/02/23 08:20:32;;;;;;;1.90;1.13;;;;;;;5.32;100.00;152729.16;5098130;27;20453;-76
2024/02/23 08:22:58;;;;;;;1.33;0.90;;;;;;;5.33;100.00;152730.47;5116472;27;20443;-76
2024/02/23 08:25:28;;;;;;;1.43;0.80;;;;;;;5.36;100.00;152738.22;5096574;27;20459;-76
2024/02/23 08:27:55;;;;;;;1.20;0.70;;;;;;;5.42;100.00;152755.00;5116160;27;20475;-76
2024/02/23 08:30:21;;;;;;;1.50;1.03;;;;;;;5.44;100.00;152760.13;5082776;27;20473;-76
2024/02/23 08:32:48;;;;;;;1.40;0.60;;;;;;;5.48;100.00;152770.44;5113711;27;20470;-76
2024/02/23 08:35:15;;;;;;;2.27;1.10;;;;;;;5.50;100.00;152774.31;5114595;27;20465;-76
2024/02/23 08:37:41;;;;;;;1.20;0.70;;;;;;;5.52;100.00;152779.47;5113059;27;20498;-76
2024/02/23 08:40:09;;;;;;;1.53;0.90;;;;;;;5.52;100.00;152779.47;5115536;27;20894;-76
2024/02/23 08:42:40;;;;;;;1.70;0.80;;;;;;;5.54;100.00;152785.91;5109400;27;20535;-76
2024/02/23 08:45:09;;;;;;;4.50;1.50;;;;;;;5.55;99.97;152787.22;5115640;27;21097;-76
2024/02/23 08:47:36;;;;;;;1.40;0.80;;;;;;;5.59;99.37;152797.50;5094653;27;20459;-76
2024/02/23 08:50:04;;;;;;;2.83;0.90;;;;;;;5.61;98.47;152801.41;5080758;27;20531;-76
2024/02/23 08:52:30;;;;;;;2.90;0.90;;;;;;;5.59;96.97;152796.25;5083402;27;20457;-76
2024/02/23 08:54:57;;;;;;;2.40;1.37;;;;;;;5.60;96.15;152800.09;5131023;27;20451;-76
2024/02/23 08:57:23;;;;;;;1.60;1.20;;;;;;;5.59;95.16;152797.50;5112254;27;20455;-76
2024/02/23 08:59:51;;;;;;;2.50;1.30;;;;;;;5.64;95.46;152810.41;5116103;27;20841;-76
2024/02/23 09:02:19;;;;;;;1.50;1.00;;;;;;;5.67;95.17;152818.16;5130672;27;20466;-77
2024/02/23 09:04:58;;;;;;;2.60;0.80;;;;;;;5.70;95.44;152825.88;5099246;27;20449;-77
2024/02/23 09:07:27;;;;;;;3.77;0.60;;;;;;;5.71;96.29;152828.47;5098920;27;21356;-76
2024/02/23 09:09:54;;;;;;;2.27;1.07;;;;;;;5.75;96.12;152837.47;5101489;27;20462;-77
2024/02/23 09:12:20;;;;;;;1.80;0.90;;;;;;;5.73;93.98;152833.63;5098141;27;20574;-77
2024/02/23 09:14:47;;;;;;;4.27;0.97;;;;;;;5.78;94.33;152845.22;5118384;27;20449;-77
2024/02/23 09:17:21;;;;;;;3.10;0.93;;;;;;;5.82;94.90;152855.56;5098663;27;20487;-77
2024/02/23 09:19:50;;;;;;;3.90;0.93;;;;;;;5.83;95.71;152858.13;5113949;27;20431;-77
2024/02/23 09:22:17;;;;;;;1.17;0.70;;;;;;;5.82;93.42;152855.56;5114384;27;20479;-77
2024/02/23 09:24:44;;;;;;;1.50;0.90;;;;;;;5.92;93.68;152882.69;5114287;27;20545;-77
2024/02/23 09:27:11;;;;;;;2.90;1.20;;;;;;;5.88;92.94;152872.34;5119502;27;20483;-77
2024/02/23 09:29:38;;;;;;;1.60;1.10;;;;;;;5.92;91.93;152881.41;5119185;27;20973;-77
2024/02/23 09:32:06;;;;;;;2.07;0.80;;;;;;;5.93;91.13;152884.00;5099735;27;20984;-76
2024/02/23 09:34:33;;;;;;;4.00;2.00;;;;;;;5.94;91.07;152887.84;5097672;27;20452;-76
2024/02/23 09:37:03;;;;;;;3.73;1.90;;;;;;;5.95;90.45;152890.44;5116003;28;20902;-90
2024/02/23 09:39:30;;;;;;;1.43;0.83;;;;;;;6.02;91.48;152907.19;5114943;28;20450;-89
2024/02/23 09:41:57;;;;;;;1.83;0.80;;;;;;;6.05;92.02;152916.25;5096512;28;20832;-89
2024/02/23 09:44:24;;;;;;;1.67;1.10;;;;;;;6.11;91.54;152931.72;5092888;28;20516;-89
2024/02/23 09:46:50;;;;;;;2.10;1.00;;;;;;;6.16;91.96;152942.03;5092845;28;20506;-89
2024/02/23 09:49:17;;;;;;;2.00;1.40;;;;;;;6.14;90.48;152939.44;5075953;28;20534;-89
2024/02/23 09:51:45;;;;;;;1.43;1.00;;;;;;;6.23;89.89;152960.06;5094304;28;20757;-89
2024/02/23 09:54:12;;;;;;;1.50;1.07;;;;;;;6.25;89.21;152965.28;5092833;28;20449;-89
2024/02/23 09:56:39;;;;;;;5.10;2.30;;;;;;;6.29;88.87;152975.56;5094423;28;20914;-89
2024/02/23 09:59:05;;;;;;;6.20;1.70;;;;;;;6.31;88.25;152982.03;5092804;28;20438;-89
2024/02/23 10:01:33;;;;;;;1.33;0.97;;;;;;;6.41;87.99;153006.53;5075251;28;20465;-89
2024/02/23 10:04:02;;;;;;;1.40;0.87;;;;;;;6.47;87.87;153022.00;5059152;28;20429;-89
2024/02/23 10:06:29;;;;;;;3.50;1.37;;;;;;;6.45;86.63;153016.88;5093859;28;20532;-89
2024/02/23 10:09:02;;;;;;;1.57;1.00;;;;;;;6.47;85.69;153022.00;5094398;28;20830;-89
2024/02/23 10:11:29;;;;;;;3.00;0.90;;;;;;;6.52;86.69;153036.22;5075478;28;20472;-89
2024/02/23 10:13:55;;;;;;;3.90;1.07;;;;;;;6.54;85.23;153040.13;5109189;28;20433;-89
2024/02/23 10:16:23;;;;;;;3.77;1.03;;;;;;;6.55;85.80;153042.66;5075473;28;20441;-91
2024/02/23 10:18:49;;;;;;;3.13;1.03;;;;;;;6.54;84.36;153040.13;5109439;28;20441;-90
2024/02/23 10:21:16;;;;;;;1.50;1.10;;;;;;;6.51;83.77;153032.38;5093260;28;21049;-89
2024/02/23 10:23:46;;;;;;;1.77;1.00;;;;;;;6.54;83.49;153040.13;5107976;28;20475;-90
2024/02/23 10:26:18;;;;;;;3.43;1.53;;;;;;;6.58;83.44;153051.72;5091629;28;20449;-89
2024/02/23 10:28:46;;;;;;;1.93;0.90;;;;;;;6.62;82.05;153060.72;5088377;28;20462;-89
2024/02/23 10:31:13;;;;;;;4.60;1.00;;;;;;;6.57;81.92;153047.81;5072952;28;20435;-88
2024/02/23 10:33:39;;;;;;;1.97;1.10;;;;;;;6.54;81.89;153040.13;5087538;28;20457;-89
2024/02/23 10:36:09;;;;;;;2.17;0.87;;;;;;;6.56;82.64;153045.25;5054216;28;20488;-89
2024/02/23 10:38:39;;;;;;;1.63;0.90;;;;;;;6.58;81.23;153050.41;5088387;28;20426;-89
2024/02/23 10:41:06;;;;;;;2.60;0.97;;;;;;;6.58;82.60;153051.72;5107468;28;20479;-89
2024/02/23 10:43:42;;;;;;;1.63;1.00;;;;;;;6.57;81.89;153049.13;5092126;28;20519;-91
2024/02/23 10:46:12;;;;;;;2.00;1.00;;;;;;;6.60;81.96;153055.56;5072582;28;20453;-89
2024/02/23 10:48:40;;;;;;;2.30;0.80;;;;;;;6.66;81.47;153071.06;5066155;28;20475;-88
2024/02/23 10:51:07;;;;;;;3.20;1.10;;;;;;;6.66;81.04;153071.06;5074129;28;21064;-88
2024/02/23 10:53:35;;;;;;;2.93;1.40;;;;;;;6.67;81.22;153073.66;5092494;28;20449;-89
2024/02/23 10:56:01;;;;;;;4.17;0.90;;;;;;;6.68;80.83;153076.22;5081088;28;20479;-88
2024/02/23 10:58:28;;;;;;;2.23;0.70;;;;;;;6.76;81.59;153096.88;5104617;28;20437;-87
2024/02/23 11:01:01;;;;;;;3.40;0.80;;;;;;;6.84;82.02;153116.22;5110397;28;20464;-88
2024/02/23 11:03:28;;;;;;;3.27;1.03;;;;;;;6.86;81.49;153122.69;5097601;28;20445;-88
2024/02/23 11:05:55;;;;;;;1.23;0.77;;;;;;;6.92;80.70;153136.88;5073342;28;20453;-87
2024/02/23 11:08:21;;;;;;;1.30;0.67;;;;;;;6.94;81.23;153143.34;5074030;28;20553;-87
2024/02/23 11:10:52;;;;;;;2.77;1.00;;;;;;;6.99;79.25;153156.25;5073921;28;20455;-87
2024/02/23 11:13:18;;;;;;;2.80;0.90;;;;;;;7.04;79.08;153167.91;5090873;28;20510;-87
2024/02/23 11:15:45;;;;;;;1.97;1.27;;;;;;;7.05;78.08;153170.44;5091042;28;20433;-87
2024/02/23 11:18:28;;;;;;;1.87;1.00;;;;;;;7.04;77.07;153167.91;5090721;28;20931;-87
2024/02/23 11:20:56;;;;;;;1.30;0.80;;;;;;;7.05;77.17;153170.44;5053711;28;21065;-88
2024/02/23 11:23:23;;;;;;;2.97;0.90;;;;;;;7.06;79.10;153173.03;5049636;28;20448;-88
2024/02/23 11:26:11;;;;;;;1.20;0.53;;;;;;;7.07;79.80;153175.66;5050575;28;20840;-87
2024/02/23 11:28:44;;;;;;;1.40;0.83;;;;;;;7.07;79.79;153175.66;5057645;28;20464;-87